Time;durP1;ratioP1;P1;durP2;ratioP2;P2;SDS_P1;SDS_P2;PMS_P1;PMS_P2;Temp;Humidity;BMP_temperature;BMP_pressure;BME280_temperature;BME280_humidity;BME280_pressure;Samples;Min_cycle;Max_cycle;Signal;HPM_P1;HPM_P2
2024/03/31 00:01:06;;;;;;;30.50;8.60;;;;;;;16.71;65.59;98628.41;182724;1235;46171;-81
2024/03/31 00:05:27;;;;;;;40.80;10.30;;;;;;;16.71;65.04;98629.48;182141;1235;46146;-81
2024/03/31 00:09:29;;;;;;;26.70;9.70;;;;;;;16.75;65.10;98627.90;182517;1235;59435;-81
2024/03/31 00:13:31;;;;;;;51.00;11.70;;;;;;;16.70;65.01;98621.17;182550;1235;45995;-81
2024/03/31 00:17:32;;;;;;;35.10;9.30;;;;;;;16.64;65.11;98614.40;182405;1231;45983;-81
2024/03/31 00:21:34;;;;;;;25.90;9.50;;;;;;;16.60;65.00;98613.95;182868;1232;46101;-81
2024/03/31 00:25:36;;;;;;;49.00;11.90;;;;;;;16.46;66.17;98616.67;181899;1231;46612;-81
2024/03/31 00:29:38;;;;;;;33.50;9.40;;;;;;;16.33;67.00;98612.15;181284;1231;60279;-81
2024/03/31 00:33:40;;;;;;;29.80;8.50;;;;;;;16.14;68.97;98615.38;181754;1232;46034;-81
2024/03/31 00:37:41;;;;;;;33.90;10.50;;;;;;;15.76;71.06;98619.83;181806;1235;46098;-81
2024/03/31 00:41:43;;;;;;;47.10;11.30;;;;;;;15.27;72.64;98619.13;181403;1236;46079;-81
2024/03/31 00:45:45;;;;;;;51.40;10.50;;;;;;;14.97;73.07;98624.39;181311;1232;45803;-81
2024/03/31 00:49:48;;;;;;;47.00;9.40;;;;;;;14.87;72.12;98621.17;181101;1231;59622;-81
2024/03/31 00:53:49;;;;;;;39.20;11.20;;;;;;;14.85;71.82;98612.27;181704;1231;46057;-82
2024/03/31 00:57:51;;;;;;;38.20;9.50;;;;;;;14.83;71.77;98605.80;181353;1232;46095;-81
2024/03/31 01:01:53;;;;;;;36.80;8.80;;;;;;;14.72;72.53;98603.80;182361;1232;46005;-80
2024/03/31 01:05:57;;;;;;;34.60;8.90;;;;;;;14.59;73.23;98603.81;182650;1231;46101;-81
2024/03/31 01:09:59;;;;;;;41.40;10.10;;;;;;;14.51;73.05;98597.98;181668;1231;59571;-80
2024/03/31 01:14:03;;;;;;;27.80;7.50;;;;;;;14.54;72.70;98589.61;182134;1234;44663;-81
2024/03/31 01:18:05;;;;;;;40.60;9.30;;;;;;;14.57;72.41;98587.45;181742;1231;46129;-81
2024/03/31 01:22:08;;;;;;;34.30;9.20;;;;;;;14.60;71.90;98580.77;182485;1232;45965;-81
2024/03/31 01:26:10;;;;;;;49.70;10.10;;;;;;;14.65;71.52;98576.98;181980;1231;46072;-81
2024/03/31 01:30:12;;;;;;;37.70;10.10;;;;;;;14.69;71.82;98580.83;182455;1231;58782;-81
2024/03/31 01:34:13;;;;;;;28.30;8.20;;;;;;;14.71;72.05;98582.99;183271;1231;46435;-81
2024/03/31 01:38:15;;;;;;;35.00;9.00;;;;;;;14.66;72.75;98586.61;183614;1231;45934;-81
2024/03/31 01:42:17;;;;;;;30.30;7.10;;;;;;;14.59;73.21;98588.90;182617;1234;46104;-81
2024/03/31 01:46:19;;;;;;;35.00;8.20;;;;;;;14.50;73.24;98587.02;182981;1231;45154;-80
2024/03/31 01:50:20;;;;;;;35.70;7.00;;;;;;;14.48;73.63;98589.84;181966;1232;59380;-79
2024/03/31 01:54:22;;;;;;;21.50;7.60;;;;;;;14.41;74.19;98594.06;181874;1231;46012;-80
2024/03/31 01:58:24;;;;;;;35.70;8.70;;;;;;;14.39;73.92;98599.11;182361;1231;46089;-80
2024/03/31 02:02:25;;;;;;;39.90;6.90;;;;;;;14.34;74.56;98595.11;182408;1231;46104;-80
2024/03/31 02:06:27;;;;;;;27.10;8.70;;;;;;;14.19;75.15;98596.78;182463;1231;45959;-80
2024/03/31 02:10:29;;;;;;;44.80;8.40;;;;;;;13.99;76.05;98589.80;182110;1235;58029;-80
2024/03/31 02:14:32;;;;;;;33.30;7.00;;;;;;;13.83;76.73;98584.77;182278;1231;46074;-80
2024/03/31 02:18:34;;;;;;;31.00;9.40;;;;;;;13.63;78.46;98589.32;182856;1235;46002;-80
2024/03/31 02:22:36;;;;;;;39.30;8.10;;;;;;;13.37;79.92;98591.70;181933;1231;46148;-80
2024/03/31 02:26:38;;;;;;;37.30;8.20;;;;;;;13.11;82.03;98593.79;182361;1235;46175;-81
2024/03/31 02:30:41;;;;;;;28.20;7.10;;;;;;;12.95;83.20;98595.23;182263;1231;58093;-81
2024/03/31 02:34:43;;;;;;;30.60;8.60;;;;;;;12.87;83.23;98592.77;181665;1231;46125;-80
2024/03/31 02:38:44;;;;;;;47.80;9.90;;;;;;;12.92;82.07;98590.83;182226;1235;46110;-81
2024/03/31 02:42:46;;;;;;;44.00;8.80;;;;;;;13.06;81.19;98587.61;182260;1233;46024;-79
2024/03/31 02:46:48;;;;;;;29.60;8.30;;;;;;;13.06;81.34;98583.80;182529;1231;46012;-80
2024/03/31 02:50:50;;;;;;;34.30;8.40;;;;;;;13.09;81.09;98585.06;181595;1231;58307;-80
2024/03/31 02:54:51;;;;;;;32.70;9.00;;;;;;;13.17;80.73;98581.24;182778;1234;46033;-80
2024/03/31 02:58:53;;;;;;;27.50;8.20;;;;;;;13.24;80.72;98589.42;182504;1231;46040;-81
2024/03/31 03:02:55;;;;;;;27.30;8.70;;;;;;;13.26;81.15;98582.88;182403;1231;45976;-80
2024/03/31 03:06:57;;;;;;;36.20;9.30;;;;;;;13.27;81.11;98575.70;182076;1231;46031;-81
2024/03/31 03:10:59;;;;;;;21.30;7.80;;;;;;;13.27;80.79;98575.05;181762;1235;58354;-80
2024/03/31 03:15:00;;;;;;;32.20;9.00;;;;;;;13.19;82.11;98572.77;182409;1235;46290;-81
2024/03/31 03:19:03;;;;;;;33.40;6.70;;;;;;;13.15;81.34;98569.77;181818;1234;46156;-80
2024/03/31 03:23:05;;;;;;;30.20;7.00;;;;;;;13.19;81.21;98570.55;182124;1231;46036;-81
2024/03/31 03:27:07;;;;;;;43.40;9.60;;;;;;;13.20;81.58;98570.64;181991;1232;46014;-80
2024/03/31 03:31:08;;;;;;;22.10;7.60;;;;;;;13.16;82.04;98569.27;182035;1235;57606;-80
2024/03/31 03:35:10;;;;;;;28.30;7.40;;;;;;;13.11;82.21;98569.73;181840;1231;46098;-81
2024/03/31 03:39:12;;;;;;;40.40;8.90;;;;;;;13.11;82.18;98571.63;182276;1231;46238;-80
2024/03/31 03:43:14;;;;;;;34.70;8.40;;;;;;;13.07;82.50;98571.00;182064;1231;46125;-81
2024/03/31 03:47:16;;;;;;;25.80;8.80;;;;;;;13.04;83.11;98566.84;182578;1231;46095;-81
2024/03/31 03:51:18;;;;;;;44.70;10.10;;;;;;;12.98;83.25;98567.35;183259;1235;58141;-80
2024/03/31 03:55:20;;;;;;;27.60;8.30;;;;;;;12.97;83.08;98568.33;182038;1235;46036;-81
2024/03/31 03:59:21;;;;;;;45.70;9.90;;;;;;;12.91;83.90;98578.33;182682;1231;46062;-81
2024/03/31 04:03:23;;;;;;;23.10;7.20;;;;;;;12.79;85.49;98586.27;182939;1231;45970;-82
2024/03/31 04:07:25;;;;;;;26.50;9.50;;;;;;;12.63;85.41;98592.40;182433;1236;46517;-81
2024/03/31 04:11:26;;;;;;;31.50;8.80;;;;;;;12.67;83.44;98595.52;183249;1231;57770;-81
2024/03/31 04:15:28;;;;;;;50.90;8.50;;;;;;;12.78;83.16;98591.73;182955;1231;46190;-80
2024/03/31 04:19:30;;;;;;;27.50;8.10;;;;;;;12.77;83.73;98584.77;183060;1231;45989;-81
2024/03/31 04:23:31;;;;;;;38.00;8.90;;;;;;;12.76;83.53;98587.17;182697;1231;46143;-82
2024/03/31 04:27:33;;;;;;;28.10;9.10;;;;;;;12.70;83.78;98590.30;182167;1231;46054;-81
2024/03/31 04:31:35;;;;;;;35.00;9.10;;;;;;;12.68;83.51;98594.12;182797;1231;58239;-81
2024/03/31 04:35:37;;;;;;;39.00;8.90;;;;;;;12.66;83.90;98590.63;182800;1232;46226;-80
2024/03/31 04:39:39;;;;;;;41.50;8.50;;;;;;;12.61;84.34;98582.27;183049;1235;45811;-81
2024/03/31 04:43:41;;;;;;;33.00;8.80;;;;;;;12.59;84.47;98577.27;182982;1231;46431;-81
2024/03/31 04:47:43;;;;;;;25.80;7.30;;;;;;;12.59;84.49;98572.98;182133;1235;46086;-80
2024/03/31 04:51:48;;;;;;;34.90;8.90;;;;;;;12.63;83.51;98573.93;182205;1235;58063;-81
2024/03/31 04:55:49;;;;;;;29.10;8.30;;;;;;;12.72;83.28;98568.70;182995;1235;46096;-82
2024/03/31 04:59:51;;;;;;;25.20;8.40;;;;;;;12.88;82.13;98560.88;182449;1231;45961;-81
2024/03/31 05:03:53;;;;;;;44.80;9.50;;;;;;;13.05;80.23;98558.80;181644;1235;46168;-81
2024/03/31 05:07:55;;;;;;;34.80;9.80;;;;;;;13.24;79.59;98561.34;181239;1231;46123;-81
2024/03/31 05:11:56;;;;;;;38.20;8.80;;;;;;;13.35;79.53;98561.67;181427;1237;58019;-81
2024/03/31 05:16:07;;;;;;;27.00;8.50;;;;;;;13.39;80.09;98553.48;181432;1231;46122;-81
2024/03/31 05:20:09;;;;;;;26.50;8.10;;;;;;;13.37;80.68;98557.58;181411;1231;46004;-81
2024/03/31 05:24:10;;;;;;;28.80;7.40;;;;;;;13.34;82.63;98572.63;181578;1232;46067;-81
2024/03/31 05:28:12;;;;;;;37.30;8.00;;;;;;;13.26;84.09;98572.29;181682;1235;46063;-81
2024/03/31 05:32:14;;;;;;;24.10;7.80;;;;;;;13.13;85.41;98565.16;182588;1231;58749;-81
2024/03/31 05:36:16;;;;;;;33.00;8.40;;;;;;;12.96;87.61;98552.78;181712;1232;45980;-81
2024/03/31 05:40:22;;;;;;;25.40;7.00;;;;;;;12.75;89.10;98546.52;181725;1237;46127;-82
2024/03/31 05:44:23;;;;;;;31.10;8.00;;;;;;;12.77;89.23;98558.75;182894;1231;46514;-80
2024/03/31 05:48:25;;;;;;;29.80;7.80;;;;;;;12.77;90.94;98561.65;182543;1235;46056;-80
2024/03/31 05:52:27;;;;;;;41.10;7.60;;;;;;;12.80;90.51;98564.05;181307;1231;59383;-80
2024/03/31 05:56:28;;;;;;;26.40;7.40;;;;;;;12.86;91.19;98566.73;181504;1237;46076;-80
2024/03/31 06:00:30;;;;;;;21.30;7.00;;;;;;;12.89;92.30;98561.46;181593;1235;46018;-80
2024/03/31 06:04:33;;;;;;;32.20;8.40;;;;;;;12.87;92.96;98568.58;181301;1231;45960;-80
2024/03/31 06:08:35;;;;;;;39.80;9.70;;;;;;;12.92;93.00;98574.40;182184;1231;45965;-81
2024/03/31 06:12:37;;;;;;;36.20;10.40;;;;;;;12.97;93.33;98570.73;181300;1235;200581;-80
2024/03/31 06:16:39;;;;;;;38.20;8.50;;;;;;;13.07;92.49;98563.20;181498;1231;46181;-80
2024/03/31 06:20:41;;;;;;;22.80;8.30;;;;;;;13.22;91.94;98555.69;181399;1235;46066;-80
2024/03/31 06:24:42;;;;;;;34.00;9.10;;;;;;;13.39;92.68;98555.12;181803;1235;46001;-80
2024/03/31 06:28:44;;;;;;;30.40;8.30;;;;;;;13.59;94.51;98561.95;181546;1232;46108;-80
2024/03/31 06:32:46;;;;;;;23.90;8.00;;;;;;;13.83;95.52;98556.95;181927;1235;57101;-80
2024/03/31 06:36:48;;;;;;;23.50;7.30;;;;;;;14.05;95.48;98553.38;181501;1236;46004;-80
2024/03/31 06:40:50;;;;;;;25.80;8.80;;;;;;;14.24;94.60;98546.15;181788;1235;46088;-80
2024/03/31 06:44:51;;;;;;;35.00;9.60;;;;;;;14.39;94.47;98534.90;181541;1231;46018;-80
2024/03/31 06:48:53;;;;;;;29.10;7.70;;;;;;;14.53;95.16;98530.73;186237;1231;43811;-80
2024/03/31 06:52:54;;;;;;;33.80;7.50;;;;;;;14.56;97.70;98533.14;182517;1231;57789;-81
2024/03/31 06:56:56;;;;;;;34.90;8.20;;;;;;;14.46;97.29;98533.36;181256;1231;46113;-80
2024/03/31 07:00:59;;;;;;;35.30;9.40;;;;;;;14.58;93.45;98529.70;181551;1232;46011;-81
2024/03/31 07:05:01;;;;;;;53.70;9.60;;;;;;;14.73;92.23;98540.86;182441;1235;46180;-80
2024/03/31 07:09:03;;;;;;;33.70;9.70;;;;;;;14.95;90.13;98539.36;181582;1237;46084;-80
2024/03/31 07:13:09;;;;;;;27.30;8.30;;;;;;;15.14;89.96;98535.84;182001;1232;58641;-80
2024/03/31 07:17:11;;;;;;;21.50;8.60;;;;;;;15.31;91.60;98529.59;182074;1231;46209;-81
2024/03/31 07:21:13;;;;;;;36.30;9.50;;;;;;;15.50;90.74;98523.20;181953;1231;45980;-81
2024/03/31 07:25:14;;;;;;;41.60;9.80;;;;;;;15.74;88.45;98518.85;182034;1231;46532;-81
2024/03/31 07:29:16;;;;;;;29.50;9.20;;;;;;;16.03;86.26;98507.55;182250;1231;46328;-80
2024/03/31 07:33:18;;;;;;;32.10;8.10;;;;;;;16.37;87.41;98501.36;183407;1235;57886;-81
2024/03/31 07:37:20;;;;;;;33.50;8.80;;;;;;;16.69;84.31;98491.44;183171;1231;45975;-81
2024/03/31 07:41:22;;;;;;;37.60;8.90;;;;;;;16.90;82.35;98490.45;181876;1232;45977;-80
2024/03/31 07:45:23;;;;;;;28.40;8.70;;;;;;;17.05;81.08;98487.57;182741;1232;46046;-78
2024/03/31 07:49:25;;;;;;;27.60;7.60;;;;;;;17.12;81.34;98485.77;182653;1235;46237;-78
2024/03/31 07:53:27;;;;;;;30.10;9.50;;;;;;;17.22;82.10;98491.35;182695;1231;58143;-78
2024/03/31 07:57:29;;;;;;;36.80;10.20;;;;;;;17.58;83.08;98485.52;182136;1235;46206;-78
2024/03/31 08:01:30;;;;;;;20.00;7.70;;;;;;;17.98;81.58;98474.54;182906;1231;46081;-78
2024/03/31 08:05:35;;;;;;;39.40;10.60;;;;;;;18.40;79.43;98462.32;182627;1231;44347;-78
2024/03/31 08:09:37;;;;;;;32.20;8.30;;;;;;;18.86;77.82;98469.55;182823;1231;44822;-80
2024/03/31 08:13:39;;;;;;;37.00;8.30;;;;;;;19.22;75.13;98467.57;182929;1235;57880;-81
2024/03/31 08:17:40;;;;;;;35.30;10.70;;;;;;;19.53;73.06;98458.73;182361;1235;46194;-79
2024/03/31 08:21:42;;;;;;;30.20;9.00;;;;;;;19.80;70.38;98455.56;182594;1235;46091;-80
2024/03/31 08:25:51;;;;;;;34.30;9.50;;;;;;;20.03;70.60;98451.27;181989;1231;46145;-80
2024/03/31 08:29:54;;;;;;;28.40;6.90;;;;;;;20.30;68.84;98444.15;182384;1231;46104;-80
2024/03/31 08:33:55;;;;;;;28.00;9.30;;;;;;;20.66;66.25;98443.91;182379;1231;58480;-81
2024/03/31 08:37:57;;;;;;;35.70;8.40;;;;;;;20.99;61.66;98443.80;182302;1235;46083;-80
2024/03/31 08:42:12;;;;;;;27.60;8.00;;;;;;;21.37;62.35;98439.61;182204;1235;46065;-80
2024/03/31 08:46:14;;;;;;;55.50;9.70;;;;;;;21.62;61.32;98440.81;182364;1235;46094;-81
2024/03/31 08:50:16;;;;;;;27.90;8.70;;;;;;;21.63;61.00;98445.77;183299;1235;45953;-79
2024/03/31 08:54:18;;;;;;;24.10;8.00;;;;;;;21.63;59.80;98450.14;182911;1231;59121;-80
2024/03/31 08:58:19;;;;;;;40.20;11.00;;;;;;;21.73;61.18;98454.09;182801;1231;45985;-80
2024/03/31 09:02:24;;;;;;;38.10;8.80;;;;;;;21.85;62.74;98454.55;183318;1235;45986;-80
2024/03/31 09:06:26;;;;;;;34.80;9.60;;;;;;;21.99;63.70;98453.67;183787;1231;46043;-80
2024/03/31 09:10:27;;;;;;;36.60;10.00;;;;;;;22.13;63.24;98448.66;183348;1232;44281;-80
2024/03/31 09:14:31;;;;;;;33.50;8.10;;;;;;;22.31;63.30;98446.33;183469;1231;59185;-80
2024/03/31 09:18:32;;;;;;;38.30;9.70;;;;;;;22.34;54.10;98440.14;183759;1236;46084;-80
2024/03/31 09:22:35;;;;;;;40.90;10.10;;;;;;;22.35;54.29;98439.56;183736;1235;46098;-80
2024/03/31 09:26:38;;;;;;;22.40;8.20;;;;;;;22.41;56.01;98441.92;184203;1231;46113;-81
2024/03/31 09:30:40;;;;;;;25.20;7.90;;;;;;;22.50;54.30;98445.00;184040;1232;46130;-81
2024/03/31 09:34:46;;;;;;;29.90;10.50;;;;;;;22.66;53.21;98447.07;184263;1231;58194;-81
2024/03/31 09:38:48;;;;;;;46.40;10.10;;;;;;;22.86;53.88;98449.83;183953;1231;45996;-81
2024/03/31 09:42:51;;;;;;;40.50;8.20;;;;;;;22.88;52.11;98447.51;184309;1235;46184;-81
2024/03/31 09:46:53;;;;;;;37.10;10.20;;;;;;;22.83;52.19;98454.23;184400;1231;45976;-81
2024/03/31 09:51:02;;;;;;;39.80;8.90;;;;;;;22.81;53.56;98455.66;184785;1235;46098;-82
2024/03/31 09:55:11;;;;;;;34.20;8.60;;;;;;;22.76;52.37;98454.78;184140;1231;59794;-83
2024/03/31 09:59:15;;;;;;;27.40;8.60;;;;;;;22.72;53.16;98455.61;183940;1231;46095;-82
2024/03/31 10:03:24;;;;;;;32.00;8.10;;;;;;;22.64;54.16;98461.02;183992;1231;46081;-81
2024/03/31 10:07:27;;;;;;;29.30;8.90;;;;;;;22.62;54.41;98462.58;184075;1231;44192;-83
2024/03/31 10:11:31;;;;;;;36.10;9.50;;;;;;;22.58;54.73;98462.06;184520;1231;46062;-82
2024/03/31 10:15:34;;;;;;;31.00;9.80;;;;;;;22.67;54.77;98462.10;184064;1231;57805;-83
2024/03/31 10:19:37;;;;;;;44.20;12.00;;;;;;;22.84;55.38;98461.55;184125;1231;45938;-82
2024/03/31 10:23:40;;;;;;;28.70;8.30;;;;;;;23.03;55.42;98454.46;184327;1231;46065;-83
2024/03/31 10:27:44;;;;;;;40.10;9.80;;;;;;;23.08;52.27;98448.84;184178;1232;46035;-83
2024/03/31 10:31:46;;;;;;;36.10;9.60;;;;;;;23.12;51.57;98448.23;183919;1231;45902;-82
2024/03/31 10:35:48;;;;;;;39.30;9.10;;;;;;;23.14;51.86;98447.27;183651;1232;59285;-82
2024/03/31 10:39:50;;;;;;;31.80;8.30;;;;;;;23.20;51.69;98450.16;183788;1232;46094;-82
2024/03/31 10:43:52;;;;;;;30.00;8.80;;;;;;;23.20;52.22;98455.48;183991;1231;45903;-81
2024/03/31 10:47:54;;;;;;;36.40;9.60;;;;;;;23.29;53.94;98447.23;184590;1237;44050;-81
2024/03/31 10:51:59;;;;;;;33.60;10.10;;;;;;;23.39;53.06;98439.82;184523;1231;45907;-81
2024/03/31 10:56:04;;;;;;;42.70;12.50;;;;;;;23.53;53.36;98432.79;184433;1236;58869;-81
2024/03/31 11:00:08;;;;;;;33.80;9.70;;;;;;;23.68;53.58;98423.70;184634;1234;46155;-81
2024/03/31 11:04:19;;;;;;;29.00;8.30;;;;;;;23.75;52.46;98427.72;184833;1231;46155;-82
2024/03/31 11:08:21;;;;;;;52.10;11.30;;;;;;;23.79;52.88;98427.21;184768;1232;44679;-81
2024/03/31 11:12:25;;;;;;;47.50;8.90;;;;;;;23.96;54.09;98427.42;185026;1232;45864;-81
2024/03/31 11:16:26;;;;;;;39.20;9.80;;;;;;;24.11;53.52;98420.64;184826;1232;59504;-81
2024/03/31 11:20:28;;;;;;;35.20;9.90;;;;;;;24.28;52.81;98414.52;184898;1231;43969;-82
2024/03/31 11:24:34;;;;;;;30.70;9.20;;;;;;;24.42;50.25;98414.88;184646;1231;45950;-83
2024/03/31 11:28:36;;;;;;;35.90;10.10;;;;;;;24.51;50.02;98415.41;185005;1232;43943;-82
2024/03/31 11:32:39;;;;;;;32.00;10.50;;;;;;;24.58;49.64;98412.67;185053;1236;46172;-82
2024/03/31 11:36:42;;;;;;;43.10;10.40;;;;;;;24.64;48.20;98419.48;184717;1236;58149;-82
2024/03/31 11:40:45;;;;;;;31.90;8.60;;;;;;;24.77;48.90;98422.34;184657;1232;45962;-83
2024/03/31 11:44:48;;;;;;;33.20;9.50;;;;;;;24.87;47.73;98429.61;184664;1232;46043;-82
2024/03/31 11:48:49;;;;;;;41.40;11.20;;;;;;;24.91;49.16;98428.39;184714;1231;45887;-83
2024/03/31 11:52:51;;;;;;;43.50;10.80;;;;;;;24.95;48.88;98430.95;184644;1232;44688;-82
2024/03/31 11:56:54;;;;;;;36.80;10.70;;;;;;;25.07;50.42;98428.13;184709;1236;59172;-82
2024/03/31 12:00:55;;;;;;;25.50;8.50;;;;;;;25.19;52.47;98438.40;184664;1232;46077;-82
2024/03/31 12:04:57;;;;;;;44.30;10.30;;;;;;;25.26;51.00;98437.16;184883;1231;45858;-82
2024/03/31 12:08:59;;;;;;;47.10;12.00;;;;;;;25.23;50.92;98441.71;184608;1232;46117;-82
2024/03/31 12:13:02;;;;;;;37.70;12.00;;;;;;;25.09;47.77;98442.48;184444;1232;45808;-82
2024/03/31 12:17:04;;;;;;;37.30;9.80;;;;;;;25.01;49.09;98445.02;184741;1232;59682;-83
2024/03/31 12:21:06;;;;;;;40.30;10.30;;;;;;;25.00;51.10;98445.52;184544;1231;46408;-83
2024/03/31 12:25:09;;;;;;;43.90;12.20;;;;;;;25.12;49.87;98443.04;185272;1231;45954;-82
2024/03/31 12:29:19;;;;;;;37.00;10.60;;;;;;;25.30;49.61;98445.98;185505;1231;44620;-81
2024/03/31 12:33:21;;;;;;;36.20;11.50;;;;;;;25.43;47.36;98445.02;185338;1231;43760;-82
2024/03/31 12:37:26;;;;;;;51.40;12.50;;;;;;;25.46;50.35;98449.56;185087;1232;60009;-80
2024/03/31 12:41:28;;;;;;;36.00;9.70;;;;;;;25.43;48.56;98447.98;184981;1232;45967;-80
2024/03/31 12:45:30;;;;;;;36.70;9.80;;;;;;;25.49;49.58;98443.37;184816;1232;45222;-82
2024/03/31 12:49:31;;;;;;;40.50;10.50;;;;;;;25.52;49.49;98433.09;185715;1232;44053;-81
2024/03/31 12:53:36;;;;;;;41.00;10.50;;;;;;;25.47;48.49;98429.54;184921;1232;45092;-81
2024/03/31 12:57:39;;;;;;;;;;;;;;;25.44;49.01;98428.11;184927;1235;58230;-81
2024/03/31 13:01:40;;;;;;;34.80;10.90;;;;;;;25.31;48.10;98429.54;185039;1232;45725;-82
2024/03/31 13:05:43;;;;;;;47.30;12.40;;;;;;;25.36;47.72;98432.71;185010;1231;46008;-81
2024/03/31 13:09:45;;;;;;;45.70;11.70;;;;;;;25.45;47.94;98429.63;185163;1231;45927;-82
2024/03/31 13:13:47;;;;;;;36.20;10.90;;;;;;;25.49;45.49;98425.58;185178;1231;46059;-82
2024/03/31 13:17:48;;;;;;;40.70;10.90;;;;;;;25.42;47.44;98420.33;185238;1232;57034;-82
2024/03/31 13:21:50;;;;;;;55.30;11.40;;;;;;;25.48;48.65;98422.36;185047;1235;46123;-82
2024/03/31 13:25:52;;;;;;;41.00;11.40;;;;;;;25.47;48.17;98429.54;184729;1232;45948;-82
2024/03/31 13:29:54;;;;;;;36.50;11.40;;;;;;;25.51;49.40;98431.23;184966;1233;46114;-82
2024/03/31 13:33:56;;;;;;;42.00;11.30;;;;;;;25.45;48.31;98430.51;184931;1231;45915;-82
2024/03/31 13:37:58;;;;;;;47.30;13.60;;;;;;;25.35;48.64;98430.92;185064;1232;57782;-82
2024/03/31 13:41:59;;;;;;;47.60;11.50;;;;;;;25.07;48.73;98433.98;184937;1232;46018;-82
2024/03/31 13:46:01;;;;;;;62.60;12.40;;;;;;;24.74;48.44;98434.08;184848;1231;45970;-83
2024/03/31 13:50:03;;;;;;;41.70;12.80;;;;;;;24.41;49.37;98426.86;185309;1231;44774;-81
2024/03/31 13:54:05;;;;;;;74.20;16.00;;;;;;;24.13;49.67;98425.94;184749;1236;45947;-83
2024/03/31 13:58:06;;;;;;;43.30;13.70;;;;;;;23.92;50.38;98424.66;185058;1235;59179;-81
2024/03/31 14:02:08;;;;;;;43.00;12.50;;;;;;;23.69;50.23;98401.73;184758;1235;46075;-82
2024/03/31 14:06:10;;;;;;;49.70;13.90;;;;;;;23.53;51.28;98382.96;184244;1235;46053;-82
2024/03/31 14:10:12;;;;;;;43.10;11.10;;;;;;;23.38;53.38;98387.72;184184;1235;45981;-83
2024/03/31 14:14:14;;;;;;;47.90;14.70;;;;;;;23.15;55.36;98392.14;184269;1235;45960;-80
2024/03/31 14:18:15;;;;;;;56.30;14.10;;;;;;;23.03;55.30;98377.79;184319;1232;59268;-82
2024/03/31 14:22:17;;;;;;;49.90;13.00;;;;;;;23.02;56.01;98377.08;184200;1232;46052;-82
2024/03/31 14:26:19;;;;;;;50.00;15.40;;;;;;;23.13;53.02;98374.80;184489;1235;46084;-82
2024/03/31 14:30:21;;;;;;;50.40;13.60;;;;;;;23.33;53.60;98368.95;184418;1232;46014;-82
2024/03/31 14:34:22;;;;;;;46.80;13.40;;;;;;;23.63;54.18;98364.66;184414;1231;45873;-83
2024/03/31 14:38:24;;;;;;;50.60;13.50;;;;;;;23.88;56.55;98361.70;184966;1232;57886;-82
2024/03/31 14:42:26;;;;;;;59.20;16.40;;;;;;;24.05;53.17;98357.82;185049;1232;43937;-82
2024/03/31 14:46:27;;;;;;;51.10;14.00;;;;;;;24.15;52.91;98356.73;184542;1232;44756;-82
2024/03/31 14:50:30;;;;;;;53.70;15.40;;;;;;;24.20;53.17;98361.61;184507;1232;45983;-82
2024/03/31 14:54:32;;;;;;;49.60;13.80;;;;;;;24.25;53.71;98374.52;184718;1232;44651;-83
2024/03/31 14:58:33;;;;;;;68.50;14.80;;;;;;;24.27;54.66;98390.16;184805;1232;59589;-82
2024/03/31 15:02:35;;;;;;;42.70;12.10;;;;;;;24.27;53.35;98392.23;184502;1231;44697;-84
2024/03/31 15:06:37;;;;;;;48.90;14.90;;;;;;;24.18;53.67;98396.36;184435;1232;46009;-83
2024/03/31 15:10:38;;;;;;;39.90;14.30;;;;;;;24.01;54.87;98407.75;184548;1232;46088;-83
2024/03/31 15:14:40;;;;;;;44.40;13.90;;;;;;;23.78;54.90;98417.48;184517;1231;46050;-83
2024/03/31 15:18:42;;;;;;;53.40;14.90;;;;;;;23.41;56.85;98423.39;184156;1231;58136;-82
2024/03/31 15:22:45;;;;;;;51.00;12.90;;;;;;;22.95;58.34;98434.36;183711;1232;46091;-83
2024/03/31 15:26:47;;;;;;;53.50;13.50;;;;;;;22.57;59.03;98431.65;183728;1232;45944;-83
2024/03/31 15:30:55;;;;;;;49.80;15.30;;;;;;;22.22;60.50;98438.95;183967;1231;46210;-82
2024/03/31 15:34:57;;;;;;;57.30;15.30;;;;;;;21.98;61.25;98445.45;184118;1231;44435;-82
2024/03/31 15:39:15;;;;;;;41.60;14.30;;;;;;;21.93;60.29;98444.17;183995;1232;59113;-82
2024/03/31 15:43:16;;;;;;;49.30;12.70;;;;;;;21.89;59.94;98447.95;183824;1232;46191;-82
2024/03/31 15:47:18;;;;;;;52.70;15.90;;;;;;;21.77;60.35;98449.44;183804;1232;46188;-81
2024/03/31 15:51:20;;;;;;;45.80;13.30;;;;;;;21.62;60.55;98454.73;184003;1231;46041;-82
2024/03/31 15:55:22;;;;;;;35.40;12.00;;;;;;;21.41;61.07;98452.02;184314;1232;46018;-82
2024/03/31 15:59:24;;;;;;;53.20;12.90;;;;;;;21.27;59.97;98448.89;184166;1231;59781;-82
2024/03/31 16:03:25;;;;;;;45.40;12.80;;;;;;;21.19;60.64;98453.92;183636;1232;46062;-82
2024/03/31 16:07:27;;;;;;;48.60;12.60;;;;;;;21.06;60.85;98459.34;184340;1235;46190;-83
2024/03/31 16:11:29;;;;;;;53.30;15.10;;;;;;;20.96;60.83;98462.82;183883;1232;45934;-81
2024/03/31 16:15:31;;;;;;;52.30;11.80;;;;;;;20.86;61.12;98470.83;183112;1231;46049;-80
2024/03/31 16:19:32;;;;;;;59.40;14.90;;;;;;;20.76;61.90;98477.56;183358;1235;58254;-80
2024/03/31 16:23:34;;;;;;;39.60;14.20;;;;;;;20.65;62.07;98472.58;182838;1232;46189;-80
2024/03/31 16:27:43;;;;;;;46.00;14.10;;;;;;;20.53;62.69;98465.56;183235;1232;46011;-83
2024/03/31 16:31:45;;;;;;;52.40;12.70;;;;;;;20.42;62.79;98463.05;182941;1232;46095;-82
2024/03/31 16:35:47;;;;;;;41.50;14.60;;;;;;;20.34;63.18;98464.80;183105;1235;46088;-82
2024/03/31 16:39:49;;;;;;;39.40;12.30;;;;;;;20.22;63.53;98466.30;183313;1231;59532;-82
2024/03/31 16:43:51;;;;;;;42.30;14.30;;;;;;;20.11;63.61;98460.80;183497;1235;46129;-81
2024/03/31 16:47:53;;;;;;;53.10;13.00;;;;;;;20.06;63.44;98463.23;183026;1235;46079;-82
2024/03/31 16:51:54;;;;;;;55.20;13.60;;;;;;;20.02;63.61;98463.17;183768;1232;45960;-82
2024/03/31 16:55:56;;;;;;;44.40;13.40;;;;;;;19.95;63.49;98459.67;184503;1231;43967;-81
2024/03/31 16:59:58;;;;;;;49.80;15.40;;;;;;;19.88;63.32;98461.95;184327;1231;57776;-82
2024/03/31 17:03:59;;;;;;;41.80;12.60;;;;;;;19.80;63.96;98456.52;184070;1231;46053;-82
2024/03/31 17:08:01;;;;;;;52.00;13.70;;;;;;;19.69;63.95;98454.37;183507;1231;45225;-83
2024/03/31 17:12:03;;;;;;;53.50;15.70;;;;;;;19.57;64.36;98449.89;183167;1235;46135;-82
2024/03/31 17:16:06;;;;;;;49.20;14.90;;;;;;;19.46;65.12;98444.33;183989;1231;44952;-83
2024/03/31 17:20:08;;;;;;;46.40;12.80;;;;;;;19.32;65.66;98437.88;183616;1231;57754;-82
2024/03/31 17:24:11;;;;;;;39.30;13.00;;;;;;;19.19;66.12;98431.63;183182;1231;46088;-82
2024/03/31 17:28:13;;;;;;;43.00;12.70;;;;;;;19.07;66.69;98434.27;183015;1232;46099;-82
2024/03/31 17:32:16;;;;;;;39.50;14.10;;;;;;;18.94;67.36;98435.61;183022;1231;46094;-83
2024/03/31 17:36:17;;;;;;;48.80;18.50;;;;;;;18.77;68.38;98442.80;183157;1232;46172;-83
2024/03/31 17:40:19;;;;;;;40.20;16.30;;;;;;;18.67;68.54;98448.47;183543;1231;58088;-82
2024/03/31 17:44:21;;;;;;;44.20;13.10;;;;;;;18.55;68.79;98450.29;183492;1231;46487;-83
2024/03/31 17:48:22;;;;;;;55.90;12.10;;;;;;;18.48;69.10;98453.09;183236;1231;44684;-83
2024/03/31 17:52:24;;;;;;;47.60;13.50;;;;;;;18.42;69.02;98450.87;183757;1231;45982;-82
2024/03/31 17:56:26;;;;;;;48.40;12.60;;;;;;;18.36;69.29;98445.47;182951;1235;46627;-82
2024/03/31 18:00:28;;;;;;;40.50;14.10;;;;;;;18.29;70.04;98444.59;183168;1231;59423;-82
2024/03/31 18:04:30;;;;;;;51.70;12.90;;;;;;;18.20;70.01;98440.77;182620;1231;46116;-83
2024/03/31 18:08:33;;;;;;;61.90;13.30;;;;;;;18.09;70.11;98440.63;182980;1231;46015;-82
2024/03/31 18:12:35;;;;;;;39.20;15.10;;;;;;;17.98;70.74;98444.41;182254;1235;276636;-82
2024/03/31 18:16:37;;;;;;;74.40;26.40;;;;;;;17.87;71.39;98442.80;182858;1232;46015;-82
2024/03/31 18:20:39;;;;;;;40.30;17.70;;;;;;;17.76;71.82;98447.42;182891;1235;59122;-83
2024/03/31 18:24:41;;;;;;;48.80;13.60;;;;;;;17.59;73.94;98446.30;182470;1231;46052;-83
2024/03/31 18:28:43;;;;;;;42.40;11.60;;;;;;;17.24;77.46;98442.40;182884;1231;46082;-81